sensor_id;sensor_type;location;lat;lon;timestamp;P1;durP1;ratioP1;P2;durP2;ratioP2
60312;SDS011;46158;52.850;6.970;2024-02-28T00:01:37;24.38;;;11.55;;
60312;SDS011;46158;52.850;6.970;2024-02-28T00:04:03;23.35;;;10.85;;
60312;SDS011;46158;52.850;6.970;2024-02-28T00:06:29;22.90;;;10.52;;
60312;SDS011;46158;52.850;6.970;2024-02-28T00:08:54;24.08;;;10.93;;
60312;SDS011;46158;52.850;6.970;2024-02-28T00:11:20;24.15;;;10.95;;
60312;SDS011;46158;52.850;6.970;2024-02-28T00:13:46;23.65;;;11.65;;
60312;SDS011;46158;52.850;6.970;2024-02-28T00:16:12;23.90;;;11.68;;
60312;SDS011;46158;52.850;6.970;2024-02-28T00:18:37;23.27;;;10.93;;
60312;SDS011;46158;52.850;6.970;2024-02-28T00:21:03;23.90;;;10.98;;
60312;SDS011;46158;52.850;6.970;2024-02-28T00:23:29;23.95;;;11.38;;
60312;SDS011;46158;52.850;6.970;2024-02-28T00:25:55;22.73;;;11.05;;
60312;SDS011;46158;52.850;6.970;2024-02-28T00:28:20;23.70;;;11.25;;
60312;SDS011;46158;52.850;6.970;2024-02-28T00:30:46;24.13;;;11.68;;
60312;SDS011;46158;52.850;6.970;2024-02-28T00:33:12;24.98;;;11.18;;
60312;SDS011;46158;52.850;6.970;2024-02-28T00:35:40;24.13;;;10.90;;
60312;SDS011;46158;52.850;6.970;2024-02-28T00:38:06;24.10;;;11.25;;
60312;SDS011;46158;52.850;6.970;2024-02-28T00:40:31;24.67;;;12.02;;
60312;SDS011;46158;52.850;6.970;2024-02-28T00:42:57;24.70;;;12.40;;
60312;SDS011;46158;52.850;6.970;2024-02-28T00:45:24;24.30;;;11.40;;
60312;SDS011;46158;52.850;6.970;2024-02-28T00:47:49;24.55;;;12.05;;
60312;SDS011;46158;52.850;6.970;2024-02-28T00:50:15;24.48;;;12.18;;
60312;SDS011;46158;52.850;6.970;2024-02-28T00:52:41;23.77;;;11.63;;
60312;SDS011;46158;52.850;6.970;2024-02-28T00:55:06;23.92;;;11.55;;
60312;SDS011;46158;52.850;6.970;2024-02-28T00:57:32;24.33;;;11.93;;
60312;SDS011;46158;52.850;6.970;2024-02-28T00:59:58;24.67;;;11.68;;
60312;SDS011;46158;52.850;6.970;2024-02-28T01:02:24;22.85;;;11.15;;
60312;SDS011;46158;52.850;6.970;2024-02-28T01:04:49;23.50;;;11.32;;
60312;SDS011;46158;52.850;6.970;2024-02-28T01:07:15;23.45;;;10.85;;
60312;SDS011;46158;52.850;6.970;2024-02-28T01:09:41;23.73;;;11.50;;
60312;SDS011;46158;52.850;6.970;2024-02-28T01:12:06;23.63;;;11.02;;
60312;SDS011;46158;52.850;6.970;2024-02-28T01:14:32;24.40;;;11.85;;
60312;SDS011;46158;52.850;6.970;2024-02-28T01:16:58;23.65;;;10.80;;
60312;SDS011;46158;52.850;6.970;2024-02-28T01:19:24;23.05;;;11.00;;
60312;SDS011;46158;52.850;6.970;2024-02-28T01:21:49;23.10;;;11.10;;
60312;SDS011;46158;52.850;6.970;2024-02-28T01:24:15;24.33;;;11.13;;
60312;SDS011;46158;52.850;6.970;2024-02-28T01:26:41;23.45;;;11.20;;
60312;SDS011;46158;52.850;6.970;2024-02-28T01:29:06;24.50;;;11.82;;
60312;SDS011;46158;52.850;6.970;2024-02-28T01:31:32;22.60;;;10.73;;
60312;SDS011;46158;52.850;6.970;2024-02-28T01:33:58;22.90;;;10.75;;
60312;SDS011;46158;52.850;6.970;2024-02-28T01:36:23;23.83;;;11.40;;
60312;SDS011;46158;52.850;6.970;2024-02-28T01:38:49;24.52;;;11.75;;
60312;SDS011;46158;52.850;6.970;2024-02-28T01:41:15;23.27;;;10.63;;
60312;SDS011;46158;52.850;6.970;2024-02-28T01:43:40;23.20;;;10.65;;
60312;SDS011;46158;52.850;6.970;2024-02-28T01:46:11;21.92;;;10.13;;
60312;SDS011;46158;52.850;6.970;2024-02-28T01:48:46;22.75;;;10.52;;
60312;SDS011;46158;52.850;6.970;2024-02-28T01:51:12;23.35;;;10.73;;
60312;SDS011;46158;52.850;6.970;2024-02-28T01:53:38;23.42;;;10.65;;
60312;SDS011;46158;52.850;6.970;2024-02-28T01:56:04;23.58;;;10.73;;
60312;SDS011;46158;52.850;6.970;2024-02-28T01:58:30;23.13;;;11.18;;
60312;SDS011;46158;52.850;6.970;2024-02-28T02:00:55;23.60;;;10.63;;
60312;SDS011;46158;52.850;6.970;2024-02-28T02:03:22;21.92;;;9.60;;
60312;SDS011;46158;52.850;6.970;2024-02-28T02:05:47;22.98;;;10.38;;
60312;SDS011;46158;52.850;6.970;2024-02-28T02:08:13;21.98;;;10.23;;
60312;SDS011;46158;52.850;6.970;2024-02-28T02:10:39;22.30;;;10.15;;
60312;SDS011;46158;52.850;6.970;2024-02-28T02:13:05;22.13;;;10.00;;
60312;SDS011;46158;52.850;6.970;2024-02-28T02:15:31;22.15;;;10.35;;
60312;SDS011;46158;52.850;6.970;2024-02-28T02:17:57;21.83;;;10.05;;
60312;SDS011;46158;52.850;6.970;2024-02-28T02:20:22;23.48;;;10.80;;
60312;SDS011;46158;52.850;6.970;2024-02-28T02:22:50;22.75;;;10.70;;
60312;SDS011;46158;52.850;6.970;2024-02-28T02:25:16;22.70;;;10.30;;
60312;SDS011;46158;52.850;6.970;2024-02-28T02:27:42;22.92;;;10.32;;
60312;SDS011;46158;52.850;6.970;2024-02-28T02:30:08;22.83;;;10.32;;
60312;SDS011;46158;52.850;6.970;2024-02-28T02:32:34;22.33;;;10.65;;
60312;SDS011;46158;52.850;6.970;2024-02-28T02:34:59;21.58;;;9.68;;
60312;SDS011;46158;52.850;6.970;2024-02-28T02:37:25;20.92;;;9.10;;
60312;SDS011;46158;52.850;6.970;2024-02-28T02:39:51;21.67;;;9.75;;
60312;SDS011;46158;52.850;6.970;2024-02-28T02:42:17;21.95;;;9.80;;
60312;SDS011;46158;52.850;6.970;2024-02-28T02:44:43;21.73;;;9.43;;
60312;SDS011;46158;52.850;6.970;2024-02-28T02:47:08;22.02;;;10.10;;
60312;SDS011;46158;52.850;6.970;2024-02-28T02:49:34;21.02;;;9.18;;
60312;SDS011;46158;52.850;6.970;2024-02-28T02:52:00;22.23;;;9.95;;
60312;SDS011;46158;52.850;6.970;2024-02-28T02:54:25;21.10;;;9.23;;
60312;SDS011;46158;52.850;6.970;2024-02-28T02:56:51;21.42;;;9.60;;
60312;SDS011;46158;52.850;6.970;2024-02-28T02:59:17;21.83;;;10.00;;
60312;SDS011;46158;52.850;6.970;2024-02-28T03:01:45;22.08;;;9.77;;
60312;SDS011;46158;52.850;6.970;2024-02-28T03:04:10;20.45;;;9.20;;
60312;SDS011;46158;52.850;6.970;2024-02-28T03:06:36;21.10;;;9.27;;
60312;SDS011;46158;52.850;6.970;2024-02-28T03:09:01;21.33;;;10.00;;
60312;SDS011;46158;52.850;6.970;2024-02-28T03:11:28;21.52;;;9.77;;
60312;SDS011;46158;52.850;6.970;2024-02-28T03:13:54;21.42;;;9.55;;
60312;SDS011;46158;52.850;6.970;2024-02-28T03:16:19;20.77;;;9.45;;
60312;SDS011;46158;52.850;6.970;2024-02-28T03:18:45;21.25;;;9.05;;
60312;SDS011;46158;52.850;6.970;2024-02-28T03:21:10;21.35;;;9.90;;
60312;SDS011;46158;52.850;6.970;2024-02-28T03:23:36;21.77;;;9.52;;
60312;SDS011;46158;52.850;6.970;2024-02-28T03:26:02;21.60;;;8.90;;
60312;SDS011;46158;52.850;6.970;2024-02-28T03:28:28;22.33;;;9.82;;
60312;SDS011;46158;52.850;6.970;2024-02-28T03:30:54;21.13;;;9.25;;
60312;SDS011;46158;52.850;6.970;2024-02-28T03:33:20;21.88;;;9.82;;
60312;SDS011;46158;52.850;6.970;2024-02-28T03:35:45;20.25;;;8.75;;
60312;SDS011;46158;52.850;6.970;2024-02-28T03:38:11;21.05;;;8.90;;
60312;SDS011;46158;52.850;6.970;2024-02-28T03:40:37;22.20;;;9.75;;
60312;SDS011;46158;52.850;6.970;2024-02-28T03:43:02;21.92;;;9.50;;
60312;SDS011;46158;52.850;6.970;2024-02-28T03:45:28;21.27;;;9.40;;
60312;SDS011;46158;52.850;6.970;2024-02-28T03:47:54;22.00;;;9.73;;
60312;SDS011;46158;52.850;6.970;2024-02-28T03:50:20;20.10;;;8.68;;
60312;SDS011;46158;52.850;6.970;2024-02-28T03:52:45;20.80;;;9.15;;
60312;SDS011;46158;52.850;6.970;2024-02-28T03:55:11;21.48;;;9.07;;
60312;SDS011;46158;52.850;6.970;2024-02-28T03:57:37;20.67;;;8.68;;
60312;SDS011;46158;52.850;6.970;2024-02-28T04:00:02;20.50;;;9.20;;
60312;SDS011;46158;52.850;6.970;2024-02-28T04:02:29;21.10;;;9.20;;
60312;SDS011;46158;52.850;6.970;2024-02-28T04:04:55;21.85;;;10.35;;
60312;SDS011;46158;52.850;6.970;2024-02-28T04:07:21;21.15;;;9.38;;
60312;SDS011;46158;52.850;6.970;2024-02-28T04:09:46;21.75;;;9.38;;
60312;SDS011;46158;52.850;6.970;2024-02-28T04:12:12;21.20;;;9.45;;
60312;SDS011;46158;52.850;6.970;2024-02-28T04:14:38;20.77;;;9.07;;
60312;SDS011;46158;52.850;6.970;2024-02-28T04:17:03;20.85;;;8.88;;
60312;SDS011;46158;52.850;6.970;2024-02-28T04:19:32;22.00;;;9.73;;
60312;SDS011;46158;52.850;6.970;2024-02-28T04:21:59;20.95;;;8.95;;
60312;SDS011;46158;52.850;6.970;2024-02-28T04:24:24;20.50;;;9.20;;
60312;SDS011;46158;52.850;6.970;2024-02-28T04:26:50;20.88;;;8.93;;
60312;SDS011;46158;52.850;6.970;2024-02-28T04:29:18;20.77;;;8.77;;
60312;SDS011;46158;52.850;6.970;2024-02-28T04:31:44;20.95;;;9.52;;
60312;SDS011;46158;52.850;6.970;2024-02-28T04:34:09;21.13;;;8.27;;
60312;SDS011;46158;52.850;6.970;2024-02-28T04:36:35;20.95;;;9.32;;
60312;SDS011;46158;52.850;6.970;2024-02-28T04:39:01;20.63;;;8.82;;
60312;SDS011;46158;52.850;6.970;2024-02-28T04:41:27;20.23;;;8.88;;
60312;SDS011;46158;52.850;6.970;2024-02-28T04:43:53;20.00;;;8.38;;
60312;SDS011;46158;52.850;6.970;2024-02-28T04:46:19;19.80;;;8.40;;
60312;SDS011;46158;52.850;6.970;2024-02-28T04:48:44;20.50;;;8.75;;
60312;SDS011;46158;52.850;6.970;2024-02-28T04:51:10;20.85;;;8.90;;
60312;SDS011;46158;52.850;6.970;2024-02-28T04:53:35;20.98;;;9.00;;
60312;SDS011;46158;52.850;6.970;2024-02-28T04:56:01;20.80;;;8.88;;
60312;SDS011;46158;52.850;6.970;2024-02-28T04:58:27;21.33;;;8.95;;
60312;SDS011;46158;52.850;6.970;2024-02-28T05:00:52;20.20;;;8.88;;
60312;SDS011;46158;52.850;6.970;2024-02-28T05:03:18;21.17;;;9.20;;
60312;SDS011;46158;52.850;6.970;2024-02-28T05:05:44;20.27;;;8.35;;
60312;SDS011;46158;52.850;6.970;2024-02-28T05:08:10;21.15;;;8.90;;
60312;SDS011;46158;52.850;6.970;2024-02-28T05:10:36;20.20;;;8.35;;
60312;SDS011;46158;52.850;6.970;2024-02-28T05:13:01;20.67;;;9.18;;
60312;SDS011;46158;52.850;6.970;2024-02-28T05:15:28;20.50;;;8.43;;
60312;SDS011;46158;52.850;6.970;2024-02-28T05:17:54;20.60;;;9.25;;
60312;SDS011;46158;52.850;6.970;2024-02-28T05:20:20;20.38;;;8.68;;
60312;SDS011;46158;52.850;6.970;2024-02-28T05:22:45;20.77;;;8.98;;
60312;SDS011;46158;52.850;6.970;2024-02-28T05:25:11;20.55;;;8.52;;
60312;SDS011;46158;52.850;6.970;2024-02-28T05:27:37;20.20;;;7.95;;
60312;SDS011;46158;52.850;6.970;2024-02-28T05:30:02;20.23;;;8.15;;
60312;SDS011;46158;52.850;6.970;2024-02-28T05:32:31;19.67;;;7.88;;
60312;SDS011;46158;52.850;6.970;2024-02-28T05:34:57;20.48;;;8.55;;
60312;SDS011;46158;52.850;6.970;2024-02-28T05:37:23;20.90;;;8.68;;
60312;SDS011;46158;52.850;6.970;2024-02-28T05:39:50;19.67;;;8.52;;
60312;SDS011;46158;52.850;6.970;2024-02-28T05:42:15;20.23;;;8.60;;
60312;SDS011;46158;52.850;6.970;2024-02-28T05:44:47;20.27;;;8.40;;
60312;SDS011;46158;52.850;6.970;2024-02-28T05:47:13;20.45;;;8.48;;
60312;SDS011;46158;52.850;6.970;2024-02-28T05:49:39;20.48;;;8.35;;
60312;SDS011;46158;52.850;6.970;2024-02-28T05:52:05;20.40;;;8.30;;
60312;SDS011;46158;52.850;6.970;2024-02-28T05:54:30;20.17;;;8.05;;
60312;SDS011;46158;52.850;6.970;2024-02-28T05:56:56;20.85;;;8.65;;
60312;SDS011;46158;52.850;6.970;2024-02-28T05:59:23;20.67;;;8.48;;
60312;SDS011;46158;52.850;6.970;2024-02-28T06:01:50;19.95;;;8.15;;
60312;SDS011;46158;52.850;6.970;2024-02-28T06:04:16;19.85;;;7.72;;
60312;SDS011;46158;52.850;6.970;2024-02-28T06:06:42;18.90;;;7.15;;
60312;SDS011;46158;52.850;6.970;2024-02-28T06:09:08;18.60;;;6.82;;
60312;SDS011;46158;52.850;6.970;2024-02-28T06:11:33;18.73;;;6.95;;
60312;SDS011;46158;52.850;6.970;2024-02-28T06:13:59;18.42;;;6.25;;
60312;SDS011;46158;52.850;6.970;2024-02-28T06:16:25;19.13;;;6.63;;
60312;SDS011;46158;52.850;6.970;2024-02-28T06:18:50;18.40;;;6.68;;
60312;SDS011;46158;52.850;6.970;2024-02-28T06:21:16;18.52;;;6.50;;
60312;SDS011;46158;52.850;6.970;2024-02-28T06:23:41;18.02;;;6.63;;
60312;SDS011;46158;52.850;6.970;2024-02-28T06:26:07;17.63;;;6.40;;
60312;SDS011;46158;52.850;6.970;2024-02-28T06:28:39;18.48;;;6.20;;
60312;SDS011;46158;52.850;6.970;2024-02-28T06:31:11;19.27;;;6.50;;
60312;SDS011;46158;52.850;6.970;2024-02-28T06:33:43;17.05;;;6.00;;
60312;SDS011;46158;52.850;6.970;2024-02-28T06:36:09;18.23;;;6.32;;
60312;SDS011;46158;52.850;6.970;2024-02-28T06:38:35;18.42;;;6.50;;
60312;SDS011;46158;52.850;6.970;2024-02-28T06:41:04;17.90;;;6.28;;
60312;SDS011;46158;52.850;6.970;2024-02-28T06:43:32;17.63;;;6.20;;
60312;SDS011;46158;52.850;6.970;2024-02-28T06:45:58;17.38;;;6.13;;
60312;SDS011;46158;52.850;6.970;2024-02-28T06:48:24;17.05;;;5.95;;
60312;SDS011;46158;52.850;6.970;2024-02-28T06:50:49;16.25;;;5.82;;
60312;SDS011;46158;52.850;6.970;2024-02-28T06:53:15;18.60;;;6.38;;
60312;SDS011;46158;52.850;6.970;2024-02-28T06:55:41;16.50;;;5.90;;
60312;SDS011;46158;52.850;6.970;2024-02-28T06:58:07;15.95;;;5.43;;
60312;SDS011;46158;52.850;6.970;2024-02-28T07:00:34;17.33;;;5.88;;
60312;SDS011;46158;52.850;6.970;2024-02-28T07:02:59;17.48;;;5.93;;
60312;SDS011;46158;52.850;6.970;2024-02-28T07:05:25;17.30;;;6.07;;
60312;SDS011;46158;52.850;6.970;2024-02-28T07:07:51;18.33;;;6.70;;
60312;SDS011;46158;52.850;6.970;2024-02-28T07:10:16;18.20;;;6.82;;
60312;SDS011;46158;52.850;6.970;2024-02-28T07:12:42;18.92;;;7.05;;
60312;SDS011;46158;52.850;6.970;2024-02-28T07:15:08;19.30;;;6.95;;
60312;SDS011;46158;52.850;6.970;2024-02-28T07:17:33;19.70;;;6.95;;
60312;SDS011;46158;52.850;6.970;2024-02-28T07:19:59;18.02;;;7.18;;
60312;SDS011;46158;52.850;6.970;2024-02-28T07:22:24;21.48;;;7.10;;
60312;SDS011;46158;52.850;6.970;2024-02-28T07:24:50;21.45;;;7.68;;
60312;SDS011;46158;52.850;6.970;2024-02-28T07:27:16;20.10;;;7.38;;
60312;SDS011;46158;52.850;6.970;2024-02-28T07:29:42;20.95;;;7.25;;
60312;SDS011;46158;52.850;6.970;2024-02-28T07:32:07;20.75;;;7.88;;
60312;SDS011;46158;52.850;6.970;2024-02-28T07:34:33;22.40;;;7.68;;
60312;SDS011;46158;52.850;6.970;2024-02-28T07:36:59;20.52;;;7.95;;
60312;SDS011;46158;52.850;6.970;2024-02-28T07:39:25;20.70;;;8.35;;
60312;SDS011;46158;52.850;6.970;2024-02-28T07:41:50;21.05;;;7.45;;
60312;SDS011;46158;52.850;6.970;2024-02-28T07:44:16;22.90;;;8.32;;
60312;SDS011;46158;52.850;6.970;2024-02-28T07:46:42;44.83;;;9.60;;
60312;SDS011;46158;52.850;6.970;2024-02-28T07:49:08;26.98;;;8.70;;
60312;SDS011;46158;52.850;6.970;2024-02-28T07:51:33;33.65;;;8.70;;
60312;SDS011;46158;52.850;6.970;2024-02-28T07:53:59;33.83;;;9.90;;
60312;SDS011;46158;52.850;6.970;2024-02-28T07:56:25;26.05;;;8.38;;
60312;SDS011;46158;52.850;6.970;2024-02-28T07:58:50;26.38;;;8.20;;
60312;SDS011;46158;52.850;6.970;2024-02-28T08:01:16;34.78;;;9.70;;
60312;SDS011;46158;52.850;6.970;2024-02-28T08:03:42;35.83;;;8.75;;
60312;SDS011;46158;52.850;6.970;2024-02-28T08:06:08;29.80;;;8.18;;
60312;SDS011;46158;52.850;6.970;2024-02-28T08:08:34;24.85;;;8.10;;
60312;SDS011;46158;52.850;6.970;2024-02-28T08:11:00;26.60;;;7.97;;
60312;SDS011;46158;52.850;6.970;2024-02-28T08:13:26;25.65;;;7.60;;
60312;SDS011;46158;52.850;6.970;2024-02-28T08:15:53;23.30;;;6.88;;
60312;SDS011;46158;52.850;6.970;2024-02-28T08:18:19;25.70;;;7.75;;
60312;SDS011;46158;52.850;6.970;2024-02-28T08:20:45;22.83;;;7.40;;
60312;SDS011;46158;52.850;6.970;2024-02-28T08:23:10;24.77;;;7.38;;
60312;SDS011;46158;52.850;6.970;2024-02-28T08:25:36;21.88;;;7.20;;
60312;SDS011;46158;52.850;6.970;2024-02-28T08:28:02;23.55;;;7.05;;
60312;SDS011;46158;52.850;6.970;2024-02-28T08:30:28;21.20;;;6.95;;
60312;SDS011;46158;52.850;6.970;2024-02-28T08:32:54;22.45;;;7.47;;
60312;SDS011;46158;52.850;6.970;2024-02-28T08:35:20;29.42;;;8.48;;
60312;SDS011;46158;52.850;6.970;2024-02-28T08:37:45;24.00;;;8.13;;
60312;SDS011;46158;52.850;6.970;2024-02-28T08:40:11;21.10;;;7.05;;
60312;SDS011;46158;52.850;6.970;2024-02-28T08:42:37;21.90;;;8.13;;
60312;SDS011;46158;52.850;6.970;2024-02-28T08:45:03;21.73;;;7.55;;
60312;SDS011;46158;52.850;6.970;2024-02-28T08:47:31;21.58;;;7.93;;
60312;SDS011;46158;52.850;6.970;2024-02-28T08:49:57;20.98;;;7.93;;
60312;SDS011;46158;52.850;6.970;2024-02-28T08:52:22;20.88;;;7.90;;
60312;SDS011;46158;52.850;6.970;2024-02-28T08:54:48;22.35;;;7.45;;
60312;SDS011;46158;52.850;6.970;2024-02-28T08:57:14;21.55;;;7.63;;
60312;SDS011;46158;52.850;6.970;2024-02-28T08:59:40;22.08;;;7.70;;
60312;SDS011;46158;52.850;6.970;2024-02-28T09:02:06;20.63;;;7.43;;
60312;SDS011;46158;52.850;6.970;2024-02-28T09:04:32;22.92;;;7.32;;
60312;SDS011;46158;52.850;6.970;2024-02-28T09:06:58;20.35;;;7.05;;
60312;SDS011;46158;52.850;6.970;2024-02-28T09:09:24;20.33;;;7.90;;
60312;SDS011;46158;52.850;6.970;2024-02-28T09:11:49;26.60;;;9.13;;
60312;SDS011;46158;52.850;6.970;2024-02-28T09:14:15;22.58;;;8.43;;
60312;SDS011;46158;52.850;6.970;2024-02-28T09:16:41;21.67;;;8.48;;
60312;SDS011;46158;52.850;6.970;2024-02-28T09:19:06;23.88;;;8.13;;
60312;SDS011;46158;52.850;6.970;2024-02-28T09:21:32;19.70;;;7.60;;
60312;SDS011;46158;52.850;6.970;2024-02-28T09:23:57;20.50;;;7.72;;
60312;SDS011;46158;52.850;6.970;2024-02-28T09:26:23;20.30;;;7.18;;
60312;SDS011;46158;52.850;6.970;2024-02-28T09:28:49;21.23;;;7.63;;
60312;SDS011;46158;52.850;6.970;2024-02-28T09:31:14;21.10;;;7.97;;
60312;SDS011;46158;52.850;6.970;2024-02-28T09:33:43;22.15;;;9.05;;
60312;SDS011;46158;52.850;6.970;2024-02-28T09:36:11;21.83;;;8.35;;
60312;SDS011;46158;52.850;6.970;2024-02-28T09:38:37;23.23;;;8.25;;
60312;SDS011;46158;52.850;6.970;2024-02-28T09:41:03;22.70;;;8.00;;
60312;SDS011;46158;52.850;6.970;2024-02-28T09:43:29;22.08;;;8.68;;
60312;SDS011;46158;52.850;6.970;2024-02-28T09:45:58;20.38;;;7.35;;
60312;SDS011;46158;52.850;6.970;2024-02-28T09:48:26;20.27;;;7.70;;
60312;SDS011;46158;52.850;6.970;2024-02-28T09:50:58;20.98;;;6.90;;
60312;SDS011;46158;52.850;6.970;2024-02-28T09:53:25;20.92;;;7.30;;
60312;SDS011;46158;52.850;6.970;2024-02-28T09:55:51;21.45;;;8.50;;
60312;SDS011;46158;52.850;6.970;2024-02-28T09:58:18;20.67;;;7.78;;
60312;SDS011;46158;52.850;6.970;2024-02-28T10:00:46;21.27;;;7.68;;
60312;SDS011;46158;52.850;6.970;2024-02-28T10:03:13;22.05;;;7.38;;
60312;SDS011;46158;52.850;6.970;2024-02-28T10:05:41;22.27;;;7.13;;
60312;SDS011;46158;52.850;6.970;2024-02-28T10:08:07;22.20;;;9.00;;
60312;SDS011;46158;52.850;6.970;2024-02-28T10:10:36;22.48;;;9.05;;
60312;SDS011;46158;52.850;6.970;2024-02-28T10:13:04;21.92;;;8.10;;
60312;SDS011;46158;52.850;6.970;2024-02-28T10:15:30;21.65;;;8.48;;
60312;SDS011;46158;52.850;6.970;2024-02-28T10:17:56;21.25;;;8.23;;
60312;SDS011;46158;52.850;6.970;2024-02-28T10:20:22;19.80;;;7.90;;
60312;SDS011;46158;52.850;6.970;2024-02-28T10:22:47;20.13;;;7.85;;
60312;SDS011;46158;52.850;6.970;2024-02-28T10:25:13;21.58;;;8.30;;
60312;SDS011;46158;52.850;6.970;2024-02-28T10:27:39;20.05;;;7.50;;
60312;SDS011;46158;52.850;6.970;2024-02-28T10:30:06;20.70;;;8.07;;
60312;SDS011;46158;52.850;6.970;2024-02-28T10:32:32;20.25;;;7.25;;
60312;SDS011;46158;52.850;6.970;2024-02-28T10:35:04;20.75;;;7.45;;
60312;SDS011;46158;52.850;6.970;2024-02-28T10:37:32;20.80;;;7.35;;
60312;SDS011;46158;52.850;6.970;2024-02-28T10:39:58;19.80;;;6.90;;
60312;SDS011;46158;52.850;6.970;2024-02-28T10:42:25;19.33;;;6.80;;
60312;SDS011;46158;52.850;6.970;2024-02-28T10:44:52;19.15;;;7.25;;
60312;SDS011;46158;52.850;6.970;2024-02-28T10:47:20;18.15;;;6.38;;
60312;SDS011;46158;52.850;6.970;2024-02-28T10:49:46;20.00;;;7.38;;
60312;SDS011;46158;52.850;6.970;2024-02-28T10:52:12;19.80;;;6.55;;
60312;SDS011;46158;52.850;6.970;2024-02-28T10:54:40;18.92;;;6.47;;
60312;SDS011;46158;52.850;6.970;2024-02-28T10:57:07;19.02;;;6.63;;
60312;SDS011;46158;52.850;6.970;2024-02-28T10:59:36;20.08;;;6.93;;
60312;SDS011;46158;52.850;6.970;2024-02-28T11:02:02;18.80;;;6.28;;
60312;SDS011;46158;52.850;6.970;2024-02-28T11:04:29;18.15;;;6.32;;
60312;SDS011;46158;52.850;6.970;2024-02-28T11:06:58;19.70;;;6.55;;
60312;SDS011;46158;52.850;6.970;2024-02-28T11:09:25;18.08;;;6.30;;
60312;SDS011;46158;52.850;6.970;2024-02-28T11:11:55;17.95;;;6.15;;
60312;SDS011;46158;52.850;6.970;2024-02-28T11:14:21;18.13;;;6.50;;
60312;SDS011;46158;52.850;6.970;2024-02-28T11:17:05;18.88;;;6.35;;
60312;SDS011;46158;52.850;6.970;2024-02-28T11:19:31;18.90;;;6.10;;
60312;SDS011;46158;52.850;6.970;2024-02-28T11:22:00;17.75;;;5.82;;
60312;SDS011;46158;52.850;6.970;2024-02-28T11:24:29;17.40;;;6.47;;
60312;SDS011;46158;52.850;6.970;2024-02-28T11:26:56;17.58;;;6.38;;
60312;SDS011;46158;52.850;6.970;2024-02-28T11:29:25;17.25;;;6.15;;
60312;SDS011;46158;52.850;6.970;2024-02-28T11:34:18;19.33;;;6.45;;
60312;SDS011;46158;52.850;6.970;2024-02-28T11:36:46;18.42;;;6.43;;
60312;SDS011;46158;52.850;6.970;2024-02-28T11:39:16;18.05;;;6.65;;
60312;SDS011;46158;52.850;6.970;2024-02-28T11:41:43;17.73;;;6.35;;
60312;SDS011;46158;52.850;6.970;2024-02-28T11:44:13;18.10;;;6.25;;
60312;SDS011;46158;52.850;6.970;2024-02-28T11:46:46;16.63;;;6.03;;
60312;SDS011;46158;52.850;6.970;2024-02-28T11:49:12;17.90;;;6.15;;
60312;SDS011;46158;52.850;6.970;2024-02-28T11:51:42;16.60;;;5.82;;
60312;SDS011;46158;52.850;6.970;2024-02-28T11:54:09;18.10;;;5.78;;
60312;SDS011;46158;52.850;6.970;2024-02-28T11:56:36;17.38;;;5.90;;
60312;SDS011;46158;52.850;6.970;2024-02-28T11:59:03;16.00;;;5.40;;
60312;SDS011;46158;52.850;6.970;2024-02-28T12:04:03;15.65;;;5.63;;
60312;SDS011;46158;52.850;6.970;2024-02-28T12:06:30;16.35;;;5.70;;
60312;SDS011;46158;52.850;6.970;2024-02-28T12:08:56;15.63;;;5.55;;
60312;SDS011;46158;52.850;6.970;2024-02-28T12:11:24;15.27;;;5.32;;
60312;SDS011;46158;52.850;6.970;2024-02-28T12:13:52;16.10;;;5.70;;
60312;SDS011;46158;52.850;6.970;2024-02-28T12:16:21;15.23;;;5.32;;
60312;SDS011;46158;52.850;6.970;2024-02-28T12:18:48;16.23;;;5.63;;
60312;SDS011;46158;52.850;6.970;2024-02-28T12:21:14;14.50;;;5.28;;
60312;SDS011;46158;52.850;6.970;2024-02-28T12:23:40;15.77;;;5.93;;
60312;SDS011;46158;52.850;6.970;2024-02-28T12:26:06;14.98;;;5.47;;
60312;SDS011;46158;52.850;6.970;2024-02-28T12:28:31;16.65;;;5.50;;
60312;SDS011;46158;52.850;6.970;2024-02-28T12:30:57;15.88;;;5.72;;
60312;SDS011;46158;52.850;6.970;2024-02-28T12:33:22;14.27;;;5.50;;
60312;SDS011;46158;52.850;6.970;2024-02-28T12:35:48;14.73;;;4.97;;
60312;SDS011;46158;52.850;6.970;2024-02-28T12:38:14;16.17;;;5.13;;
60312;SDS011;46158;52.850;6.970;2024-02-28T12:40:40;15.52;;;5.47;;
60312;SDS011;46158;52.850;6.970;2024-02-28T12:43:07;14.95;;;5.55;;
60312;SDS011;46158;52.850;6.970;2024-02-28T12:45:33;15.57;;;5.47;;
60312;SDS011;46158;52.850;6.970;2024-02-28T12:47:58;13.82;;;5.38;;
60312;SDS011;46158;52.850;6.970;2024-02-28T12:50:26;15.00;;;5.25;;
60312;SDS011;46158;52.850;6.970;2024-02-28T12:52:52;13.82;;;5.20;;
60312;SDS011;46158;52.850;6.970;2024-02-28T12:55:19;13.32;;;5.10;;
60312;SDS011;46158;52.850;6.970;2024-02-28T12:57:46;13.50;;;4.88;;
60312;SDS011;46158;52.850;6.970;2024-02-28T13:00:12;15.57;;;5.63;;
60312;SDS011;46158;52.850;6.970;2024-02-28T13:02:38;12.95;;;4.70;;
60312;SDS011;46158;52.850;6.970;2024-02-28T13:05:04;15.32;;;5.40;;
60312;SDS011;46158;52.850;6.970;2024-02-28T13:07:30;14.85;;;5.30;;
60312;SDS011;46158;52.850;6.970;2024-02-28T13:09:56;14.43;;;5.30;;
60312;SDS011;46158;52.850;6.970;2024-02-28T13:12:21;13.30;;;4.90;;
60312;SDS011;46158;52.850;6.970;2024-02-28T13:14:47;13.63;;;5.25;;
60312;SDS011;46158;52.850;6.970;2024-02-28T13:17:13;14.98;;;5.68;;
60312;SDS011;46158;52.850;6.970;2024-02-28T13:19:40;14.68;;;5.20;;
60312;SDS011;46158;52.850;6.970;2024-02-28T13:22:05;13.23;;;5.07;;
60312;SDS011;46158;52.850;6.970;2024-02-28T13:24:31;13.18;;;4.97;;
60312;SDS011;46158;52.850;6.970;2024-02-28T13:27:00;12.85;;;4.88;;
60312;SDS011;46158;52.850;6.970;2024-02-28T13:29:26;14.15;;;5.15;;
60312;SDS011;46158;52.850;6.970;2024-02-28T13:31:52;14.63;;;5.10;;
60312;SDS011;46158;52.850;6.970;2024-02-28T13:34:17;14.25;;;5.20;;
60312;SDS011;46158;52.850;6.970;2024-02-28T13:36:43;12.50;;;4.97;;
60312;SDS011;46158;52.850;6.970;2024-02-28T13:39:09;14.27;;;5.07;;
60312;SDS011;46158;52.850;6.970;2024-02-28T13:41:36;13.50;;;4.85;;
60312;SDS011;46158;52.850;6.970;2024-02-28T13:44:03;14.40;;;4.85;;
60312;SDS011;46158;52.850;6.970;2024-02-28T13:46:29;15.60;;;5.40;;
60312;SDS011;46158;52.850;6.970;2024-02-28T13:48:55;14.68;;;5.18;;
60312;SDS011;46158;52.850;6.970;2024-02-28T13:51:23;11.13;;;4.88;;
60312;SDS011;46158;52.850;6.970;2024-02-28T13:53:49;11.85;;;4.70;;
60312;SDS011;46158;52.850;6.970;2024-02-28T13:56:17;14.23;;;4.93;;
60312;SDS011;46158;52.850;6.970;2024-02-28T13:58:43;13.77;;;5.15;;
60312;SDS011;46158;52.850;6.970;2024-02-28T14:01:09;13.40;;;5.07;;
60312;SDS011;46158;52.850;6.970;2024-02-28T14:03:35;13.68;;;4.80;;
60312;SDS011;46158;52.850;6.970;2024-02-28T14:06:02;12.57;;;4.90;;
60312;SDS011;46158;52.850;6.970;2024-02-28T14:08:28;14.35;;;4.93;;
60312;SDS011;46158;52.850;6.970;2024-02-28T14:10:53;13.52;;;4.97;;
60312;SDS011;46158;52.850;6.970;2024-02-28T14:13:19;14.43;;;4.93;;
60312;SDS011;46158;52.850;6.970;2024-02-28T14:15:45;13.77;;;5.15;;
60312;SDS011;46158;52.850;6.970;2024-02-28T14:18:11;12.65;;;5.13;;
60312;SDS011;46158;52.850;6.970;2024-02-28T14:20:37;12.73;;;4.78;;
60312;SDS011;46158;52.850;6.970;2024-02-28T14:23:03;11.43;;;4.70;;
60312;SDS011;46158;52.850;6.970;2024-02-28T14:25:30;13.65;;;5.20;;
60312;SDS011;46158;52.850;6.970;2024-02-28T14:27:55;14.35;;;4.90;;
60312;SDS011;46158;52.850;6.970;2024-02-28T14:30:21;13.63;;;5.03;;